Terminal Aerodrome Forecast
Issued by NWS

Home | Current Version | Previous Version | Text Only | Print | Product List | Glossary On
Versions: 1 2 3 4 5 6 7 8 9 10 11 12 13 14 15 16 17
000
FTUS45 KRIW 231739
TAFLND
TAF
KLND 231739Z 2318/2418 28007KT 5SM -SNRA SCT010 OVC020
     FM232100 VRB05KT 3SM -SN OVC010
     FM240500 VRB05KT P6SM SCT015 BKN025
     FM241100 VRB04KT P6SM VCFG SCT030 SCT070
     FM241600 VRB05KT P6SM FEW060 SCT200=

USA.gov is the U.S. government's official web portal to all federal, state and local government web resources and services.